sensor_id;sensor_type;location;lat;lon;timestamp;temperature;humidity
74359;DHT22;62792;46.236;6.040;2023-06-19T00:03:59;27.30;52.10
74359;DHT22;62792;46.236;6.040;2023-06-19T00:09:04;27.20;52.40
74359;DHT22;62792;46.236;6.040;2023-06-19T00:14:08;27.10;52.30
74359;DHT22;62792;46.236;6.040;2023-06-19T00:19:11;27.00;51.90
74359;DHT22;62792;46.236;6.040;2023-06-19T00:24:16;27.00;51.90
74359;DHT22;62792;46.236;6.040;2023-06-19T00:29:18;26.70;52.10
74359;DHT22;62792;46.236;6.040;2023-06-19T00:34:22;26.80;51.40
74359;DHT22;62792;46.236;6.040;2023-06-19T00:39:27;26.90;51.60
74359;DHT22;62792;46.236;6.040;2023-06-19T00:44:30;27.00;51.40
74359;DHT22;62792;46.236;6.040;2023-06-19T00:49:33;27.10;51.00
74359;DHT22;62792;46.236;6.040;2023-06-19T00:54:37;27.00;51.10
74359;DHT22;62792;46.236;6.040;2023-06-19T00:59:41;27.10;51.20
74359;DHT22;62792;46.236;6.040;2023-06-19T01:04:44;27.20;51.00
74359;DHT22;62792;46.236;6.040;2023-06-19T01:09:50;27.30;50.90
74359;DHT22;62792;46.236;6.040;2023-06-19T01:14:57;27.30;51.00
74359;DHT22;62792;46.236;6.040;2023-06-19T01:20:01;27.30;51.10
74359;DHT22;62792;46.236;6.040;2023-06-19T01:25:13;27.40;51.30
74359;DHT22;62792;46.236;6.040;2023-06-19T01:30:16;27.50;51.40
74359;DHT22;62792;46.236;6.040;2023-06-19T01:35:19;27.40;51.30
74359;DHT22;62792;46.236;6.040;2023-06-19T01:40:27;27.40;51.40
74359;DHT22;62792;46.236;6.040;2023-06-19T01:45:33;27.40;51.40
74359;DHT22;62792;46.236;6.040;2023-06-19T01:50:36;27.20;50.80
74359;DHT22;62792;46.236;6.040;2023-06-19T01:55:40;27.20;50.80
74359;DHT22;62792;46.236;6.040;2023-06-19T02:00:43;26.60;50.80
74359;DHT22;62792;46.236;6.040;2023-06-19T02:05:46;26.30;51.50
74359;DHT22;62792;46.236;6.040;2023-06-19T02:10:50;26.00;51.90
74359;DHT22;62792;46.236;6.040;2023-06-19T02:15:53;25.90;52.10
74359;DHT22;62792;46.236;6.040;2023-06-19T02:20:56;25.80;52.10
74359;DHT22;62792;46.236;6.040;2023-06-19T02:26:01;25.80;52.10
74359;DHT22;62792;46.236;6.040;2023-06-19T02:31:04;25.90;52.00
74359;DHT22;62792;46.236;6.040;2023-06-19T02:36:07;26.20;51.60
74359;DHT22;62792;46.236;6.040;2023-06-19T02:41:12;26.50;50.30
74359;DHT22;62792;46.236;6.040;2023-06-19T02:46:15;26.40;50.10
74359;DHT22;62792;46.236;6.040;2023-06-19T02:51:19;26.60;50.00
74359;DHT22;62792;46.236;6.040;2023-06-19T02:56:23;26.50;50.20
74359;DHT22;62792;46.236;6.040;2023-06-19T03:01:28;26.70;50.20
74359;DHT22;62792;46.236;6.040;2023-06-19T03:06:30;26.70;50.30
74359;DHT22;62792;46.236;6.040;2023-06-19T03:11:36;26.50;50.00
74359;DHT22;62792;46.236;6.040;2023-06-19T03:16:39;26.20;51.60
74359;DHT22;62792;46.236;6.040;2023-06-19T03:21:42;25.90;51.90
74359;DHT22;62792;46.236;6.040;2023-06-19T03:26:46;25.90;52.00
74359;DHT22;62792;46.236;6.040;2023-06-19T03:31:49;25.80;52.20
74359;DHT22;62792;46.236;6.040;2023-06-19T03:36:52;25.90;52.10
74359;DHT22;62792;46.236;6.040;2023-06-19T03:41:57;25.90;51.80
74359;DHT22;62792;46.236;6.040;2023-06-19T03:47:00;25.70;52.00
74359;DHT22;62792;46.236;6.040;2023-06-19T03:52:03;25.80;52.50
74359;DHT22;62792;46.236;6.040;2023-06-19T03:57:08;25.70;53.20
74359;DHT22;62792;46.236;6.040;2023-06-19T04:02:11;25.50;53.30
74359;DHT22;62792;46.236;6.040;2023-06-19T04:07:14;25.60;53.40
74359;DHT22;62792;46.236;6.040;2023-06-19T04:12:18;25.70;53.60
74359;DHT22;62792;46.236;6.040;2023-06-19T04:17:21;25.90;53.70
74359;DHT22;62792;46.236;6.040;2023-06-19T04:22:25;25.90;53.80
74359;DHT22;62792;46.236;6.040;2023-06-19T04:27:29;25.90;53.50
74359;DHT22;62792;46.236;6.040;2023-06-19T04:32:32;26.00;53.50
74359;DHT22;62792;46.236;6.040;2023-06-19T04:37:36;26.00;53.20
74359;DHT22;62792;46.236;6.040;2023-06-19T04:42:40;26.00;53.40
74359;DHT22;62792;46.236;6.040;2023-06-19T04:47:43;26.00;53.50
74359;DHT22;62792;46.236;6.040;2023-06-19T04:52:54;26.00;53.80
74359;DHT22;62792;46.236;6.040;2023-06-19T04:57:58;26.00;53.40
74359;DHT22;62792;46.236;6.040;2023-06-19T05:03:01;26.00;53.30
74359;DHT22;62792;46.236;6.040;2023-06-19T05:08:04;26.10;52.90
74359;DHT22;62792;46.236;6.040;2023-06-19T05:13:09;26.00;53.50
74359;DHT22;62792;46.236;6.040;2023-06-19T05:18:12;26.00;54.40
74359;DHT22;62792;46.236;6.040;2023-06-19T05:23:15;26.00;54.80
74359;DHT22;62792;46.236;6.040;2023-06-19T05:28:19;26.10;55.60
74359;DHT22;62792;46.236;6.040;2023-06-19T05:33:22;26.00;55.80
74359;DHT22;62792;46.236;6.040;2023-06-19T05:38:25;26.20;55.90
74359;DHT22;62792;46.236;6.040;2023-06-19T05:43:31;26.00;56.20
74359;DHT22;62792;46.236;6.040;2023-06-19T05:48:34;26.00;56.80
74359;DHT22;62792;46.236;6.040;2023-06-19T05:53:36;26.10;56.70
74359;DHT22;62792;46.236;6.040;2023-06-19T05:58:41;26.10;57.20
74359;DHT22;62792;46.236;6.040;2023-06-19T06:03:44;26.20;57.10
74359;DHT22;62792;46.236;6.040;2023-06-19T06:08:47;26.20;57.10
74359;DHT22;62792;46.236;6.040;2023-06-19T06:13:51;26.30;56.60
74359;DHT22;62792;46.236;6.040;2023-06-19T06:18:54;26.50;55.10
74359;DHT22;62792;46.236;6.040;2023-06-19T06:23:57;26.60;54.60
74359;DHT22;62792;46.236;6.040;2023-06-19T06:29:01;26.50;54.40
74359;DHT22;62792;46.236;6.040;2023-06-19T06:34:04;26.60;53.80
74359;DHT22;62792;46.236;6.040;2023-06-19T06:39:07;26.40;53.40
74359;DHT22;62792;46.236;6.040;2023-06-19T06:44:11;26.20;54.60
74359;DHT22;62792;46.236;6.040;2023-06-19T06:49:14;26.20;55.00
74359;DHT22;62792;46.236;6.040;2023-06-19T06:54:18;26.30;55.20
74359;DHT22;62792;46.236;6.040;2023-06-19T06:59:25;26.40;54.30
74359;DHT22;62792;46.236;6.040;2023-06-19T07:04:28;26.20;55.60
74359;DHT22;62792;46.236;6.040;2023-06-19T07:09:31;26.30;55.00
74359;DHT22;62792;46.236;6.040;2023-06-19T07:14:36;26.40;54.20
74359;DHT22;62792;46.236;6.040;2023-06-19T07:19:39;26.10;55.50
74359;DHT22;62792;46.236;6.040;2023-06-19T07:24:42;25.50;57.10
74359;DHT22;62792;46.236;6.040;2023-06-19T07:29:47;25.70;57.40
74359;DHT22;62792;46.236;6.040;2023-06-19T07:34:50;25.70;57.40
74359;DHT22;62792;46.236;6.040;2023-06-19T07:39:53;25.70;57.20
74359;DHT22;62792;46.236;6.040;2023-06-19T07:44:58;25.70;56.80
74359;DHT22;62792;46.236;6.040;2023-06-19T07:50:02;25.70;56.60
74359;DHT22;62792;46.236;6.040;2023-06-19T07:55:05;25.70;57.10
74359;DHT22;62792;46.236;6.040;2023-06-19T08:00:10;25.20;57.90
74359;DHT22;62792;46.236;6.040;2023-06-19T08:05:14;25.30;58.10
74359;DHT22;62792;46.236;6.040;2023-06-19T08:10:17;25.20;57.70
74359;DHT22;62792;46.236;6.040;2023-06-19T08:15:22;25.50;57.80
74359;DHT22;62792;46.236;6.040;2023-06-19T08:20:25;25.10;58.30
74359;DHT22;62792;46.236;6.040;2023-06-19T08:25:28;25.20;58.70
74359;DHT22;62792;46.236;6.040;2023-06-19T08:30:33;25.10;59.90
74359;DHT22;62792;46.236;6.040;2023-06-19T08:35:35;25.20;59.40
74359;DHT22;62792;46.236;6.040;2023-06-19T08:40:38;25.50;58.70
74359;DHT22;62792;46.236;6.040;2023-06-19T08:45:53;25.50;59.00
74359;DHT22;62792;46.236;6.040;2023-06-19T08:51:00;25.40;59.80
74359;DHT22;62792;46.236;6.040;2023-06-19T08:56:03;25.20;60.30
74359;DHT22;62792;46.236;6.040;2023-06-19T09:01:08;24.90;60.60
74359;DHT22;62792;46.236;6.040;2023-06-19T09:06:10;25.20;60.50
74359;DHT22;62792;46.236;6.040;2023-06-19T09:11:13;25.70;58.70
74359;DHT22;62792;46.236;6.040;2023-06-19T09:16:23;25.90;58.20
74359;DHT22;62792;46.236;6.040;2023-06-19T09:21:26;26.00;57.70
74359;DHT22;62792;46.236;6.040;2023-06-19T09:26:30;26.10;57.50
74359;DHT22;62792;46.236;6.040;2023-06-19T09:31:34;26.20;57.20
74359;DHT22;62792;46.236;6.040;2023-06-19T09:36:38;26.40;55.70
74359;DHT22;62792;46.236;6.040;2023-06-19T09:41:42;26.60;55.50
74359;DHT22;62792;46.236;6.040;2023-06-19T09:46:50;26.60;55.00
74359;DHT22;62792;46.236;6.040;2023-06-19T09:51:53;26.60;55.00
74359;DHT22;62792;46.236;6.040;2023-06-19T09:56:57;26.80;55.20
74359;DHT22;62792;46.236;6.040;2023-06-19T10:02:03;27.30;54.10
74359;DHT22;62792;46.236;6.040;2023-06-19T10:07:14;27.60;53.70
74359;DHT22;62792;46.236;6.040;2023-06-19T10:12:18;27.70;53.40
74359;DHT22;62792;46.236;6.040;2023-06-19T10:17:22;27.80;53.50
74359;DHT22;62792;46.236;6.040;2023-06-19T10:22:29;27.80;53.30
74359;DHT22;62792;46.236;6.040;2023-06-19T10:27:38;27.90;53.20
74359;DHT22;62792;46.236;6.040;2023-06-19T10:32:44;27.60;53.50
74359;DHT22;62792;46.236;6.040;2023-06-19T10:37:47;27.50;53.60
74359;DHT22;62792;46.236;6.040;2023-06-19T10:42:51;27.50;53.40
74359;DHT22;62792;46.236;6.040;2023-06-19T10:47:55;27.50;51.80
74359;DHT22;62792;46.236;6.040;2023-06-19T10:53:00;27.60;51.80
74359;DHT22;62792;46.236;6.040;2023-06-19T10:58:03;27.60;51.80
74359;DHT22;62792;46.236;6.040;2023-06-19T11:03:07;27.30;51.00
74359;DHT22;62792;46.236;6.040;2023-06-19T11:08:10;27.40;51.20
74359;DHT22;62792;46.236;6.040;2023-06-19T11:13:13;26.80;50.80
74359;DHT22;62792;46.236;6.040;2023-06-19T11:18:19;27.10;51.60
74359;DHT22;62792;46.236;6.040;2023-06-19T11:23:25;27.30;51.00
74359;DHT22;62792;46.236;6.040;2023-06-19T11:28:29;27.40;50.70
74359;DHT22;62792;46.236;6.040;2023-06-19T11:33:33;26.90;51.80
74359;DHT22;62792;46.236;6.040;2023-06-19T11:38:36;27.20;52.40
74359;DHT22;62792;46.236;6.040;2023-06-19T11:43:40;27.50;51.80
74359;DHT22;62792;46.236;6.040;2023-06-19T11:48:44;27.10;52.50
74359;DHT22;62792;46.236;6.040;2023-06-19T11:54:07;27.50;52.40
74359;DHT22;62792;46.236;6.040;2023-06-19T11:59:11;27.50;52.20
74359;DHT22;62792;46.236;6.040;2023-06-19T12:04:15;27.70;52.60
74359;DHT22;62792;46.236;6.040;2023-06-19T12:09:19;27.60;52.60
74359;DHT22;62792;46.236;6.040;2023-06-19T12:14:22;27.70;52.50
74359;DHT22;62792;46.236;6.040;2023-06-19T12:19:27;27.70;52.70
74359;DHT22;62792;46.236;6.040;2023-06-19T12:24:31;27.90;52.80
74359;DHT22;62792;46.236;6.040;2023-06-19T12:29:35;28.10;52.70
74359;DHT22;62792;46.236;6.040;2023-06-19T12:34:39;28.10;52.80
74359;DHT22;62792;46.236;6.040;2023-06-19T12:39:48;28.20;53.10
74359;DHT22;62792;46.236;6.040;2023-06-19T12:44:51;27.90;52.70
74359;DHT22;62792;46.236;6.040;2023-06-19T12:49:56;27.80;53.20
74359;DHT22;62792;46.236;6.040;2023-06-19T12:54:58;27.80;53.50
74359;DHT22;62792;46.236;6.040;2023-06-19T13:00:05;27.50;53.80
74359;DHT22;62792;46.236;6.040;2023-06-19T13:05:11;27.70;53.30
74359;DHT22;62792;46.236;6.040;2023-06-19T13:10:14;28.00;53.20
74359;DHT22;62792;46.236;6.040;2023-06-19T13:15:17;27.90;52.10
74359;DHT22;62792;46.236;6.040;2023-06-19T13:20:21;28.00;51.50
74359;DHT22;62792;46.236;6.040;2023-06-19T13:25:25;28.20;51.70
74359;DHT22;62792;46.236;6.040;2023-06-19T13:30:27;28.50;51.40
74359;DHT22;62792;46.236;6.040;2023-06-19T13:35:32;28.50;50.90
74359;DHT22;62792;46.236;6.040;2023-06-19T13:40:35;28.60;51.10
74359;DHT22;62792;46.236;6.040;2023-06-19T13:45:38;28.80;49.60
74359;DHT22;62792;46.236;6.040;2023-06-19T13:50:42;28.90;49.60
74359;DHT22;62792;46.236;6.040;2023-06-19T13:55:45;28.90;49.10
74359;DHT22;62792;46.236;6.040;2023-06-19T14:00:48;29.20;48.50
74359;DHT22;62792;46.236;6.040;2023-06-19T14:05:52;29.50;48.70
74359;DHT22;62792;46.236;6.040;2023-06-19T14:10:55;29.50;48.80
74359;DHT22;62792;46.236;6.040;2023-06-19T14:15:58;29.50;48.60
74359;DHT22;62792;46.236;6.040;2023-06-19T14:21:03;29.80;48.50
74359;DHT22;62792;46.236;6.040;2023-06-19T14:26:06;29.60;48.30
74359;DHT22;62792;46.236;6.040;2023-06-19T14:31:09;29.90;48.50
74359;DHT22;62792;46.236;6.040;2023-06-19T14:36:14;29.80;47.80
74359;DHT22;62792;46.236;6.040;2023-06-19T14:41:16;29.70;47.00
74359;DHT22;62792;46.236;6.040;2023-06-19T14:46:19;29.40;48.40
74359;DHT22;62792;46.236;6.040;2023-06-19T14:51:40;29.70;48.90
74359;DHT22;62792;46.236;6.040;2023-06-19T14:56:44;29.50;48.80
74359;DHT22;62792;46.236;6.040;2023-06-19T15:01:49;29.50;48.10
74359;DHT22;62792;46.236;6.040;2023-06-19T15:06:53;29.40;48.60
74359;DHT22;62792;46.236;6.040;2023-06-19T15:11:57;29.90;47.90
74359;DHT22;62792;46.236;6.040;2023-06-19T15:17:00;30.10;47.50
74359;DHT22;62792;46.236;6.040;2023-06-19T15:22:05;30.30;46.80
74359;DHT22;62792;46.236;6.040;2023-06-19T15:27:08;30.10;46.40
74359;DHT22;62792;46.236;6.040;2023-06-19T15:32:11;30.10;46.20
74359;DHT22;62792;46.236;6.040;2023-06-19T15:37:16;30.30;46.40
74359;DHT22;62792;46.236;6.040;2023-06-19T15:42:19;30.30;46.60
74359;DHT22;62792;46.236;6.040;2023-06-19T15:47:22;30.30;46.90
74359;DHT22;62792;46.236;6.040;2023-06-19T15:52:26;29.80;47.60
74359;DHT22;62792;46.236;6.040;2023-06-19T15:57:30;29.90;47.70
74359;DHT22;62792;46.236;6.040;2023-06-19T16:02:33;30.10;47.10
74359;DHT22;62792;46.236;6.040;2023-06-19T16:07:37;30.10;47.20
74359;DHT22;62792;46.236;6.040;2023-06-19T16:12:40;30.20;47.00
74359;DHT22;62792;46.236;6.040;2023-06-19T16:17:43;30.20;47.30
74359;DHT22;62792;46.236;6.040;2023-06-19T16:22:48;30.20;46.70
74359;DHT22;62792;46.236;6.040;2023-06-19T16:27:52;30.20;47.20
74359;DHT22;62792;46.236;6.040;2023-06-19T16:32:56;30.30;47.60
74359;DHT22;62792;46.236;6.040;2023-06-19T16:38:01;30.40;47.60
74359;DHT22;62792;46.236;6.040;2023-06-19T16:43:04;30.40;47.80
74359;DHT22;62792;46.236;6.040;2023-06-19T16:48:07;30.30;48.00
74359;DHT22;62792;46.236;6.040;2023-06-19T16:53:11;30.40;48.50
74359;DHT22;62792;46.236;6.040;2023-06-19T16:58:15;30.40;48.70
74359;DHT22;62792;46.236;6.040;2023-06-19T17:03:18;30.20;49.40
74359;DHT22;62792;46.236;6.040;2023-06-19T17:08:23;30.00;49.70
74359;DHT22;62792;46.236;6.040;2023-06-19T17:13:27;30.00;50.10
74359;DHT22;62792;46.236;6.040;2023-06-19T17:18:30;30.00;50.10
74359;DHT22;62792;46.236;6.040;2023-06-19T17:23:34;30.00;50.20
74359;DHT22;62792;46.236;6.040;2023-06-19T17:28:37;29.90;50.70
74359;DHT22;62792;46.236;6.040;2023-06-19T17:33:40;29.90;50.60
74359;DHT22;62792;46.236;6.040;2023-06-19T17:38:44;29.80;50.60
74359;DHT22;62792;46.236;6.040;2023-06-19T17:43:48;29.70;50.90
74359;DHT22;62792;46.236;6.040;2023-06-19T17:48:52;29.60;51.30
74359;DHT22;62792;46.236;6.040;2023-06-19T17:53:57;29.60;51.40
74359;DHT22;62792;46.236;6.040;2023-06-19T17:59:01;29.60;51.70
74359;DHT22;62792;46.236;6.040;2023-06-19T18:04:04;29.50;52.10
74359;DHT22;62792;46.236;6.040;2023-06-19T18:09:09;29.50;52.40
74359;DHT22;62792;46.236;6.040;2023-06-19T18:14:12;29.40;52.90
74359;DHT22;62792;46.236;6.040;2023-06-19T18:19:15;29.30;53.10
74359;DHT22;62792;46.236;6.040;2023-06-19T18:24:20;29.30;52.90
74359;DHT22;62792;46.236;6.040;2023-06-19T18:29:23;29.20;53.10
74359;DHT22;62792;46.236;6.040;2023-06-19T18:34:26;29.20;53.30
74359;DHT22;62792;46.236;6.040;2023-06-19T18:39:31;29.00;54.70
74359;DHT22;62792;46.236;6.040;2023-06-19T18:44:36;28.90;54.60
74359;DHT22;62792;46.236;6.040;2023-06-19T18:49:39;28.90;54.50
74359;DHT22;62792;46.236;6.040;2023-06-19T18:54:43;28.80;54.80
74359;DHT22;62792;46.236;6.040;2023-06-19T18:59:46;28.70;54.90
74359;DHT22;62792;46.236;6.040;2023-06-19T19:04:49;28.80;54.40
74359;DHT22;62792;46.236;6.040;2023-06-19T19:09:53;28.70;53.20
74359;DHT22;62792;46.236;6.040;2023-06-19T19:14:56;28.60;52.20
74359;DHT22;62792;46.236;6.040;2023-06-19T19:20:00;28.60;51.80
74359;DHT22;62792;46.236;6.040;2023-06-19T19:25:06;28.60;51.00
74359;DHT22;62792;46.236;6.040;2023-06-19T19:30:10;28.60;51.30
74359;DHT22;62792;46.236;6.040;2023-06-19T19:35:14;28.50;51.00
74359;DHT22;62792;46.236;6.040;2023-06-19T19:40:18;28.40;50.80
74359;DHT22;62792;46.236;6.040;2023-06-19T19:45:21;28.40;50.90
74359;DHT22;62792;46.236;6.040;2023-06-19T19:50:24;28.40;50.50
74359;DHT22;62792;46.236;6.040;2023-06-19T19:55:29;28.40;50.10
74359;DHT22;62792;46.236;6.040;2023-06-19T20:00:32;28.20;49.80
74359;DHT22;62792;46.236;6.040;2023-06-19T20:05:34;28.30;49.90
74359;DHT22;62792;46.236;6.040;2023-06-19T20:10:39;28.20;49.70
74359;DHT22;62792;46.236;6.040;2023-06-19T20:15:41;28.10;49.90
74359;DHT22;62792;46.236;6.040;2023-06-19T20:20:48;28.10;49.90
74359;DHT22;62792;46.236;6.040;2023-06-19T20:25:53;27.90;50.50
74359;DHT22;62792;46.236;6.040;2023-06-19T20:30:56;27.90;51.20
74359;DHT22;62792;46.236;6.040;2023-06-19T20:35:59;28.00;51.90
74359;DHT22;62792;46.236;6.040;2023-06-19T20:41:03;27.70;53.20
74359;DHT22;62792;46.236;6.040;2023-06-19T20:46:06;27.40;54.60
74359;DHT22;62792;46.236;6.040;2023-06-19T20:51:11;27.30;54.90
74359;DHT22;62792;46.236;6.040;2023-06-19T20:56:15;27.10;55.70
74359;DHT22;62792;46.236;6.040;2023-06-19T21:01:21;27.30;54.90
74359;DHT22;62792;46.236;6.040;2023-06-19T21:06:24;27.30;53.80
74359;DHT22;62792;46.236;6.040;2023-06-19T21:11:28;27.40;53.40
74359;DHT22;62792;46.236;6.040;2023-06-19T21:16:31;27.40;53.80
74359;DHT22;62792;46.236;6.040;2023-06-19T21:21:35;27.40;53.90
74359;DHT22;62792;46.236;6.040;2023-06-19T21:26:40;27.50;53.50
74359;DHT22;62792;46.236;6.040;2023-06-19T21:31:43;27.30;54.10
74359;DHT22;62792;46.236;6.040;2023-06-19T21:36:46;27.30;54.30
74359;DHT22;62792;46.236;6.040;2023-06-19T21:41:50;27.10;54.90
74359;DHT22;62792;46.236;6.040;2023-06-19T21:46:54;27.00;55.40
74359;DHT22;62792;46.236;6.040;2023-06-19T21:51:57;26.80;55.80
74359;DHT22;62792;46.236;6.040;2023-06-19T21:57:02;26.70;57.40
74359;DHT22;62792;46.236;6.040;2023-06-19T22:02:05;26.70;58.20
74359;DHT22;62792;46.236;6.040;2023-06-19T22:07:12;26.90;58.40
74359;DHT22;62792;46.236;6.040;2023-06-19T22:12:17;26.70;58.90
74359;DHT22;62792;46.236;6.040;2023-06-19T22:17:22;26.80;60.10
74359;DHT22;62792;46.236;6.040;2023-06-19T22:22:25;26.80;60.70
74359;DHT22;62792;46.236;6.040;2023-06-19T22:27:30;26.60;60.70
74359;DHT22;62792;46.236;6.040;2023-06-19T22:32:33;26.20;61.30
74359;DHT22;62792;46.236;6.040;2023-06-19T22:37:37;26.20;60.70
74359;DHT22;62792;46.236;6.040;2023-06-19T22:42:42;26.30;60.50
74359;DHT22;62792;46.236;6.040;2023-06-19T22:47:44;26.40;59.20
74359;DHT22;62792;46.236;6.040;2023-06-19T22:52:47;26.90;58.40
74359;DHT22;62792;46.236;6.040;2023-06-19T22:57:52;27.20;58.00
74359;DHT22;62792;46.236;6.040;2023-06-19T23:02:55;27.10;57.70
74359;DHT22;62792;46.236;6.040;2023-06-19T23:07:58;26.70;58.90
74359;DHT22;62792;46.236;6.040;2023-06-19T23:13:02;26.50;59.70
74359;DHT22;62792;46.236;6.040;2023-06-19T23:18:05;26.60;59.80
74359;DHT22;62792;46.236;6.040;2023-06-19T23:23:08;26.60;59.80
74359;DHT22;62792;46.236;6.040;2023-06-19T23:28:13;26.50;60.10
74359;DHT22;62792;46.236;6.040;2023-06-19T23:33:15;26.60;60.30
74359;DHT22;62792;46.236;6.040;2023-06-19T23:38:18;26.60;60.30
74359;DHT22;62792;46.236;6.040;2023-06-19T23:43:23;26.80;60.60
74359;DHT22;62792;46.236;6.040;2023-06-19T23:48:26;27.00;59.40
74359;DHT22;62792;46.236;6.040;2023-06-19T23:53:29;27.00;59.50
74359;DHT22;62792;46.236;6.040;2023-06-19T23:58:33;27.10;59.70
